KHBG/HBG METAR and TAF weather

Enter ICAO airport designator
Station Type Date Time Source
KHBG METAR 2021/09/28 03:53 UTC NOAA

KHBG 280353Z AUTO 00000KT 10SM OVC090 23/18 A3004 RMK AO2 SLP169 T02330183


Station Type Date Time Source
KHBG Decoded METAR 2021/09/28 03:53 UTC NOAA

HATTIESBURG CHAIN MUNICIPAL, MS, United States (KHBG) 31-16N 89-15W 44M
Sep 27, 2021 - 11:53 PM EDT / 2021.09.28 0353 UTC
Wind: Calm:0
Visibility: 10 mile(s):0
Sky conditions: overcast
Temperature: 73.9 F (23.3 C)
Dew Point: 64.9 F (18.3 C)
Relative Humidity: 73%
Pressure (altimeter): 30.04 in. Hg (1017 hPa)
ob: KHBG 280353Z AUTO 00000KT 10SM OVC090 23/18 A3004 RMK AO2 SLP169 T02330183
cycle: 4

Station Type Date Time Source
KHBG TAF 2021/09/28 01:42 UTC NOAA

TAF KHBG 280039Z 2801/2824 11004KT P6SM BKN080
FM280900 00000KT 6SM BR BKN005
FM281100 00000KT 4SM BR BKN002
FM281300 00000KT P6SM BKN005
FM281500 14003KT P6SM BKN020
FM281600 14004KT P6SM BKN035
FM282000 17006KT P6SM -SHRA OVC050

Example: see airport list